sensor_id;sensor_type;location;lat;lon;timestamp;P1;durP1;ratioP1;P2;durP2;ratioP2
16854;SDS011;8543;54.522;18.550;2022-10-10T00:01:42;7.20;;;2.50;;
16854;SDS011;8543;54.522;18.550;2022-10-10T00:04:08;8.80;;;2.70;;
16854;SDS011;8543;54.522;18.550;2022-10-10T00:06:33;4.50;;;2.30;;
16854;SDS011;8543;54.522;18.550;2022-10-10T00:08:59;4.60;;;2.20;;
16854;SDS011;8543;54.522;18.550;2022-10-10T00:11:25;3.70;;;1.60;;
16854;SDS011;8543;54.522;18.550;2022-10-10T00:13:51;5.80;;;2.30;;
16854;SDS011;8543;54.522;18.550;2022-10-10T00:16:17;4.90;;;2.50;;
16854;SDS011;8543;54.522;18.550;2022-10-10T00:18:43;5.60;;;2.40;;
16854;SDS011;8543;54.522;18.550;2022-10-10T00:21:08;4.70;;;2.20;;
16854;SDS011;8543;54.522;18.550;2022-10-10T00:23:36;5.90;;;2.50;;
16854;SDS011;8543;54.522;18.550;2022-10-10T00:26:02;4.60;;;2.10;;
16854;SDS011;8543;54.522;18.550;2022-10-10T00:28:28;4.60;;;2.30;;
16854;SDS011;8543;54.522;18.550;2022-10-10T00:30:53;8.00;;;3.00;;
16854;SDS011;8543;54.522;18.550;2022-10-10T00:33:19;3.90;;;2.10;;
16854;SDS011;8543;54.522;18.550;2022-10-10T00:35:44;5.30;;;2.30;;
16854;SDS011;8543;54.522;18.550;2022-10-10T00:38:10;4.90;;;2.20;;
16854;SDS011;8543;54.522;18.550;2022-10-10T00:40:42;4.80;;;2.40;;
16854;SDS011;8543;54.522;18.550;2022-10-10T00:43:12;5.50;;;2.40;;
16854;SDS011;8543;54.522;18.550;2022-10-10T00:45:39;3.60;;;2.00;;
16854;SDS011;8543;54.522;18.550;2022-10-10T00:48:11;6.80;;;2.10;;
16854;SDS011;8543;54.522;18.550;2022-10-10T00:53:17;5.30;;;2.10;;
16854;SDS011;8543;54.522;18.550;2022-10-10T00:55:45;3.10;;;1.90;;
16854;SDS011;8543;54.522;18.550;2022-10-10T00:58:11;4.80;;;1.80;;
16854;SDS011;8543;54.522;18.550;2022-10-10T01:00:38;3.20;;;1.50;;
16854;SDS011;8543;54.522;18.550;2022-10-10T01:03:04;6.40;;;2.20;;
16854;SDS011;8543;54.522;18.550;2022-10-10T01:05:29;5.50;;;1.80;;
16854;SDS011;8543;54.522;18.550;2022-10-10T01:07:55;3.50;;;2.10;;
16854;SDS011;8543;54.522;18.550;2022-10-10T01:10:21;5.20;;;2.20;;
16854;SDS011;8543;54.522;18.550;2022-10-10T01:16:05;6.40;;;2.40;;
16854;SDS011;8543;54.522;18.550;2022-10-10T01:30:13;6.20;;;2.50;;
16854;SDS011;8543;54.522;18.550;2022-10-10T01:32:53;6.20;;;2.80;;
16854;SDS011;8543;54.522;18.550;2022-10-10T01:35:24;5.20;;;2.50;;
16854;SDS011;8543;54.522;18.550;2022-10-10T01:43:25;4.70;;;2.60;;
16854;SDS011;8543;54.522;18.550;2022-10-10T01:45:51;6.70;;;2.60;;
16854;SDS011;8543;54.522;18.550;2022-10-10T01:48:25;6.80;;;3.00;;
16854;SDS011;8543;54.522;18.550;2022-10-10T01:56:20;5.90;;;2.90;;
16854;SDS011;8543;54.522;18.550;2022-10-10T01:59:07;7.80;;;2.90;;
16854;SDS011;8543;54.522;18.550;2022-10-10T02:02:22;6.50;;;2.60;;
16854;SDS011;8543;54.522;18.550;2022-10-10T02:04:51;5.60;;;2.70;;
16854;SDS011;8543;54.522;18.550;2022-10-10T02:07:32;6.70;;;2.80;;
16854;SDS011;8543;54.522;18.550;2022-10-10T02:10:09;8.30;;;3.00;;
16854;SDS011;8543;54.522;18.550;2022-10-10T02:12:36;6.80;;;2.90;;
16854;SDS011;8543;54.522;18.550;2022-10-10T02:15:07;4.80;;;2.60;;
16854;SDS011;8543;54.522;18.550;2022-10-10T02:17:37;5.80;;;2.80;;
16854;SDS011;8543;54.522;18.550;2022-10-10T02:20:03;6.90;;;2.70;;
16854;SDS011;8543;54.522;18.550;2022-10-10T02:22:30;5.40;;;2.60;;
16854;SDS011;8543;54.522;18.550;2022-10-10T02:24:56;5.20;;;2.40;;
16854;SDS011;8543;54.522;18.550;2022-10-10T02:27:24;8.10;;;3.10;;
16854;SDS011;8543;54.522;18.550;2022-10-10T02:29:55;5.60;;;2.40;;
16854;SDS011;8543;54.522;18.550;2022-10-10T02:34:57;7.60;;;3.10;;
16854;SDS011;8543;54.522;18.550;2022-10-10T02:37:26;6.90;;;3.10;;
16854;SDS011;8543;54.522;18.550;2022-10-10T02:39:53;7.90;;;3.10;;
16854;SDS011;8543;54.522;18.550;2022-10-10T02:42:22;6.10;;;2.90;;
16854;SDS011;8543;54.522;18.550;2022-10-10T02:44:48;7.00;;;2.90;;
16854;SDS011;8543;54.522;18.550;2022-10-10T02:47:14;6.60;;;3.20;;
16854;SDS011;8543;54.522;18.550;2022-10-10T02:49:40;6.00;;;2.90;;
16854;SDS011;8543;54.522;18.550;2022-10-10T02:52:06;8.50;;;3.10;;
16854;SDS011;8543;54.522;18.550;2022-10-10T02:54:33;7.20;;;3.10;;
16854;SDS011;8543;54.522;18.550;2022-10-10T02:56:58;7.70;;;2.90;;
16854;SDS011;8543;54.522;18.550;2022-10-10T02:59:24;5.80;;;2.90;;
16854;SDS011;8543;54.522;18.550;2022-10-10T03:01:49;8.90;;;3.20;;
16854;SDS011;8543;54.522;18.550;2022-10-10T03:04:15;7.00;;;3.30;;
16854;SDS011;8543;54.522;18.550;2022-10-10T03:06:40;6.70;;;3.40;;
16854;SDS011;8543;54.522;18.550;2022-10-10T03:09:06;6.70;;;3.40;;
16854;SDS011;8543;54.522;18.550;2022-10-10T03:11:32;11.10;;;5.00;;
16854;SDS011;8543;54.522;18.550;2022-10-10T03:13:57;7.50;;;3.70;;
16854;SDS011;8543;54.522;18.550;2022-10-10T03:16:24;5.60;;;3.40;;
16854;SDS011;8543;54.522;18.550;2022-10-10T03:18:49;8.20;;;3.90;;
16854;SDS011;8543;54.522;18.550;2022-10-10T03:21:15;7.00;;;4.00;;
16854;SDS011;8543;54.522;18.550;2022-10-10T03:23:40;7.70;;;3.50;;
16854;SDS011;8543;54.522;18.550;2022-10-10T03:26:07;8.30;;;4.20;;
16854;SDS011;8543;54.522;18.550;2022-10-10T03:28:33;6.30;;;4.00;;
16854;SDS011;8543;54.522;18.550;2022-10-10T03:30:58;9.20;;;4.80;;
16854;SDS011;8543;54.522;18.550;2022-10-10T03:33:24;11.90;;;6.50;;
16854;SDS011;8543;54.522;18.550;2022-10-10T03:35:49;8.40;;;5.10;;
16854;SDS011;8543;54.522;18.550;2022-10-10T03:38:16;8.70;;;4.90;;
16854;SDS011;8543;54.522;18.550;2022-10-10T03:40:42;12.00;;;4.90;;
16854;SDS011;8543;54.522;18.550;2022-10-10T03:43:09;9.50;;;4.60;;
16854;SDS011;8543;54.522;18.550;2022-10-10T03:45:35;11.40;;;4.90;;
16854;SDS011;8543;54.522;18.550;2022-10-10T03:48:01;11.30;;;5.00;;
16854;SDS011;8543;54.522;18.550;2022-10-10T03:50:27;9.40;;;5.00;;
16854;SDS011;8543;54.522;18.550;2022-10-10T03:52:53;9.60;;;5.10;;
16854;SDS011;8543;54.522;18.550;2022-10-10T03:55:19;11.20;;;5.30;;
16854;SDS011;8543;54.522;18.550;2022-10-10T03:57:44;11.70;;;5.40;;
16854;SDS011;8543;54.522;18.550;2022-10-10T04:00:10;9.60;;;5.40;;
16854;SDS011;8543;54.522;18.550;2022-10-10T04:02:36;9.20;;;5.10;;
16854;SDS011;8543;54.522;18.550;2022-10-10T04:05:02;14.10;;;6.40;;
16854;SDS011;8543;54.522;18.550;2022-10-10T04:07:29;8.60;;;4.80;;
16854;SDS011;8543;54.522;18.550;2022-10-10T04:09:54;11.00;;;5.30;;
16854;SDS011;8543;54.522;18.550;2022-10-10T04:12:20;9.80;;;5.30;;
16854;SDS011;8543;54.522;18.550;2022-10-10T04:14:45;10.60;;;5.30;;
16854;SDS011;8543;54.522;18.550;2022-10-10T04:17:11;10.70;;;5.50;;
16854;SDS011;8543;54.522;18.550;2022-10-10T04:19:36;8.00;;;5.40;;
16854;SDS011;8543;54.522;18.550;2022-10-10T04:22:02;11.20;;;5.40;;
16854;SDS011;8543;54.522;18.550;2022-10-10T04:24:28;10.60;;;5.70;;
16854;SDS011;8543;54.522;18.550;2022-10-10T04:26:53;12.30;;;6.10;;
16854;SDS011;8543;54.522;18.550;2022-10-10T04:29:19;11.30;;;5.80;;
16854;SDS011;8543;54.522;18.550;2022-10-10T04:31:44;14.40;;;6.00;;
16854;SDS011;8543;54.522;18.550;2022-10-10T04:34:10;11.20;;;6.20;;
16854;SDS011;8543;54.522;18.550;2022-10-10T04:36:35;11.40;;;5.60;;
16854;SDS011;8543;54.522;18.550;2022-10-10T04:39:01;14.70;;;5.70;;
16854;SDS011;8543;54.522;18.550;2022-10-10T04:41:26;10.70;;;5.80;;
16854;SDS011;8543;54.522;18.550;2022-10-10T04:43:53;11.10;;;5.90;;
16854;SDS011;8543;54.522;18.550;2022-10-10T04:46:20;9.80;;;5.50;;
16854;SDS011;8543;54.522;18.550;2022-10-10T04:48:45;11.70;;;5.80;;
16854;SDS011;8543;54.522;18.550;2022-10-10T04:51:11;10.10;;;5.10;;
16854;SDS011;8543;54.522;18.550;2022-10-10T04:53:37;9.20;;;5.10;;
16854;SDS011;8543;54.522;18.550;2022-10-10T04:56:02;8.80;;;4.90;;
16854;SDS011;8543;54.522;18.550;2022-10-10T04:58:28;12.90;;;7.00;;
16854;SDS011;8543;54.522;18.550;2022-10-10T05:00:54;11.00;;;6.20;;
16854;SDS011;8543;54.522;18.550;2022-10-10T05:03:20;10.40;;;5.70;;
16854;SDS011;8543;54.522;18.550;2022-10-10T05:05:47;13.40;;;7.40;;
16854;SDS011;8543;54.522;18.550;2022-10-10T05:08:13;14.90;;;7.60;;
16854;SDS011;8543;54.522;18.550;2022-10-10T05:10:38;13.70;;;7.90;;
16854;SDS011;8543;54.522;18.550;2022-10-10T05:13:09;8.50;;;5.10;;
16854;SDS011;8543;54.522;18.550;2022-10-10T05:15:35;10.50;;;6.90;;
16854;SDS011;8543;54.522;18.550;2022-10-10T05:18:03;11.20;;;7.10;;
16854;SDS011;8543;54.522;18.550;2022-10-10T05:20:28;10.80;;;6.30;;
16854;SDS011;8543;54.522;18.550;2022-10-10T05:22:55;10.40;;;6.50;;
16854;SDS011;8543;54.522;18.550;2022-10-10T05:25:20;11.50;;;5.90;;
16854;SDS011;8543;54.522;18.550;2022-10-10T05:27:46;10.90;;;6.60;;
16854;SDS011;8543;54.522;18.550;2022-10-10T05:30:12;11.80;;;7.60;;
16854;SDS011;8543;54.522;18.550;2022-10-10T05:32:37;8.60;;;5.40;;
16854;SDS011;8543;54.522;18.550;2022-10-10T05:35:03;10.40;;;6.30;;
16854;SDS011;8543;54.522;18.550;2022-10-10T05:37:29;8.20;;;5.20;;
16854;SDS011;8543;54.522;18.550;2022-10-10T05:39:55;10.30;;;5.40;;
16854;SDS011;8543;54.522;18.550;2022-10-10T05:42:21;8.80;;;5.30;;
16854;SDS011;8543;54.522;18.550;2022-10-10T05:44:46;9.20;;;5.30;;
16854;SDS011;8543;54.522;18.550;2022-10-10T05:47:12;10.50;;;5.80;;
16854;SDS011;8543;54.522;18.550;2022-10-10T05:49:37;8.30;;;5.40;;
16854;SDS011;8543;54.522;18.550;2022-10-10T05:52:03;10.00;;;6.10;;
16854;SDS011;8543;54.522;18.550;2022-10-10T05:54:28;10.40;;;5.90;;
16854;SDS011;8543;54.522;18.550;2022-10-10T05:56:53;6.80;;;4.80;;
16854;SDS011;8543;54.522;18.550;2022-10-10T05:59:19;7.80;;;4.80;;
16854;SDS011;8543;54.522;18.550;2022-10-10T06:01:44;9.40;;;5.70;;
16854;SDS011;8543;54.522;18.550;2022-10-10T06:04:10;8.10;;;5.70;;
16854;SDS011;8543;54.522;18.550;2022-10-10T06:06:35;9.60;;;5.80;;
16854;SDS011;8543;54.522;18.550;2022-10-10T06:09:01;10.20;;;5.80;;
16854;SDS011;8543;54.522;18.550;2022-10-10T06:11:27;8.50;;;6.00;;
16854;SDS011;8543;54.522;18.550;2022-10-10T06:13:54;9.80;;;6.10;;
16854;SDS011;8543;54.522;18.550;2022-10-10T06:16:21;9.50;;;6.90;;
16854;SDS011;8543;54.522;18.550;2022-10-10T06:18:47;8.80;;;6.50;;
16854;SDS011;8543;54.522;18.550;2022-10-10T06:21:13;8.00;;;6.50;;
16854;SDS011;8543;54.522;18.550;2022-10-10T06:23:39;8.70;;;6.10;;
16854;SDS011;8543;54.522;18.550;2022-10-10T06:26:05;8.50;;;6.20;;
16854;SDS011;8543;54.522;18.550;2022-10-10T06:28:31;7.10;;;6.00;;
16854;SDS011;8543;54.522;18.550;2022-10-10T06:30:58;7.90;;;6.20;;
16854;SDS011;8543;54.522;18.550;2022-10-10T06:33:25;8.10;;;6.50;;
16854;SDS011;8543;54.522;18.550;2022-10-10T06:35:51;9.10;;;6.60;;
16854;SDS011;8543;54.522;18.550;2022-10-10T06:38:16;10.20;;;6.80;;
16854;SDS011;8543;54.522;18.550;2022-10-10T06:40:42;8.20;;;7.00;;
16854;SDS011;8543;54.522;18.550;2022-10-10T06:43:09;9.00;;;7.80;;
16854;SDS011;8543;54.522;18.550;2022-10-10T06:45:38;10.50;;;7.70;;
16854;SDS011;8543;54.522;18.550;2022-10-10T06:48:05;10.10;;;7.80;;
16854;SDS011;8543;54.522;18.550;2022-10-10T06:50:31;10.10;;;7.80;;
16854;SDS011;8543;54.522;18.550;2022-10-10T06:52:57;8.40;;;7.30;;
16854;SDS011;8543;54.522;18.550;2022-10-10T06:55:23;8.30;;;7.00;;
16854;SDS011;8543;54.522;18.550;2022-10-10T06:57:48;9.90;;;8.20;;
16854;SDS011;8543;54.522;18.550;2022-10-10T07:00:14;8.80;;;7.20;;
16854;SDS011;8543;54.522;18.550;2022-10-10T07:02:39;8.10;;;7.00;;
16854;SDS011;8543;54.522;18.550;2022-10-10T07:05:05;8.80;;;7.10;;
16854;SDS011;8543;54.522;18.550;2022-10-10T07:07:33;9.90;;;7.20;;
16854;SDS011;8543;54.522;18.550;2022-10-10T07:09:59;8.50;;;7.00;;
16854;SDS011;8543;54.522;18.550;2022-10-10T07:12:24;8.90;;;6.90;;
16854;SDS011;8543;54.522;18.550;2022-10-10T07:14:50;8.30;;;6.90;;
16854;SDS011;8543;54.522;18.550;2022-10-10T07:17:15;8.10;;;6.30;;
16854;SDS011;8543;54.522;18.550;2022-10-10T07:19:40;8.50;;;5.70;;
16854;SDS011;8543;54.522;18.550;2022-10-10T07:22:06;9.90;;;7.00;;
16854;SDS011;8543;54.522;18.550;2022-10-10T07:24:31;7.60;;;5.70;;
16854;SDS011;8543;54.522;18.550;2022-10-10T07:26:57;6.50;;;5.30;;
16854;SDS011;8543;54.522;18.550;2022-10-10T07:29:22;7.80;;;5.90;;
16854;SDS011;8543;54.522;18.550;2022-10-10T07:31:48;7.50;;;6.10;;
16854;SDS011;8543;54.522;18.550;2022-10-10T07:34:14;9.10;;;6.20;;
16854;SDS011;8543;54.522;18.550;2022-10-10T07:36:40;7.30;;;5.40;;
16854;SDS011;8543;54.522;18.550;2022-10-10T07:39:06;7.80;;;5.70;;
16854;SDS011;8543;54.522;18.550;2022-10-10T07:41:31;9.70;;;5.00;;
16854;SDS011;8543;54.522;18.550;2022-10-10T07:43:57;7.00;;;5.10;;
16854;SDS011;8543;54.522;18.550;2022-10-10T07:46:22;6.80;;;5.30;;
16854;SDS011;8543;54.522;18.550;2022-10-10T07:48:48;7.10;;;5.20;;
16854;SDS011;8543;54.522;18.550;2022-10-10T07:51:14;8.00;;;4.90;;
16854;SDS011;8543;54.522;18.550;2022-10-10T08:17:14;8.30;;;4.90;;
16854;SDS011;8543;54.522;18.550;2022-10-10T08:19:42;9.40;;;5.20;;
16854;SDS011;8543;54.522;18.550;2022-10-10T08:22:08;8.70;;;5.80;;
16854;SDS011;8543;54.522;18.550;2022-10-10T08:24:33;8.90;;;5.70;;
16854;SDS011;8543;54.522;18.550;2022-10-10T08:26:59;9.30;;;5.50;;
16854;SDS011;8543;54.522;18.550;2022-10-10T08:29:24;10.20;;;5.00;;
16854;SDS011;8543;54.522;18.550;2022-10-10T08:31:50;7.60;;;5.10;;
16854;SDS011;8543;54.522;18.550;2022-10-10T08:34:15;7.70;;;4.70;;
16854;SDS011;8543;54.522;18.550;2022-10-10T08:36:41;7.50;;;4.70;;
16854;SDS011;8543;54.522;18.550;2022-10-10T08:39:06;9.10;;;5.20;;
16854;SDS011;8543;54.522;18.550;2022-10-10T08:41:40;8.30;;;5.00;;
16854;SDS011;8543;54.522;18.550;2022-10-10T08:44:15;7.20;;;4.70;;
16854;SDS011;8543;54.522;18.550;2022-10-10T08:49:17;7.40;;;5.30;;
16854;SDS011;8543;54.522;18.550;2022-10-10T08:52:05;11.60;;;5.10;;
16854;SDS011;8543;54.522;18.550;2022-10-10T08:54:35;11.10;;;5.70;;
16854;SDS011;8543;54.522;18.550;2022-10-10T08:57:04;8.70;;;5.50;;
16854;SDS011;8543;54.522;18.550;2022-10-10T08:59:35;9.90;;;4.90;;
16854;SDS011;8543;54.522;18.550;2022-10-10T09:02:15;10.50;;;5.70;;
16854;SDS011;8543;54.522;18.550;2022-10-10T09:04:44;8.20;;;5.50;;
16854;SDS011;8543;54.522;18.550;2022-10-10T09:13:04;9.90;;;5.80;;
16854;SDS011;8543;54.522;18.550;2022-10-10T09:15:44;7.20;;;4.70;;
16854;SDS011;8543;54.522;18.550;2022-10-10T09:18:22;7.80;;;5.00;;
16854;SDS011;8543;54.522;18.550;2022-10-10T09:23:50;8.10;;;5.00;;
16854;SDS011;8543;54.522;18.550;2022-10-10T09:26:33;7.80;;;4.30;;
16854;SDS011;8543;54.522;18.550;2022-10-10T09:29:02;6.40;;;4.20;;
16854;SDS011;8543;54.522;18.550;2022-10-10T09:31:41;10.50;;;4.50;;
16854;SDS011;8543;54.522;18.550;2022-10-10T09:34:14;8.30;;;4.70;;
16854;SDS011;8543;54.522;18.550;2022-10-10T09:36:48;7.50;;;4.60;;
16854;SDS011;8543;54.522;18.550;2022-10-10T09:41:59;7.80;;;4.40;;
16854;SDS011;8543;54.522;18.550;2022-10-10T09:44:25;9.10;;;4.30;;
16854;SDS011;8543;54.522;18.550;2022-10-10T09:46:51;9.00;;;4.70;;
16854;SDS011;8543;54.522;18.550;2022-10-10T09:49:17;8.00;;;4.60;;
16854;SDS011;8543;54.522;18.550;2022-10-10T09:51:44;7.40;;;4.60;;
16854;SDS011;8543;54.522;18.550;2022-10-10T09:54:11;8.30;;;4.90;;
16854;SDS011;8543;54.522;18.550;2022-10-10T09:56:41;10.90;;;4.80;;
16854;SDS011;8543;54.522;18.550;2022-10-10T09:59:34;9.30;;;4.60;;
16854;SDS011;8543;54.522;18.550;2022-10-10T10:02:02;8.90;;;4.90;;
16854;SDS011;8543;54.522;18.550;2022-10-10T10:04:36;5.80;;;4.10;;
16854;SDS011;8543;54.522;18.550;2022-10-10T10:07:03;8.30;;;4.30;;
16854;SDS011;8543;54.522;18.550;2022-10-10T10:09:30;6.60;;;4.40;;
16854;SDS011;8543;54.522;18.550;2022-10-10T10:11:56;6.60;;;4.20;;
16854;SDS011;8543;54.522;18.550;2022-10-10T10:14:25;7.20;;;3.80;;
16854;SDS011;8543;54.522;18.550;2022-10-10T10:17:04;6.00;;;3.70;;
16854;SDS011;8543;54.522;18.550;2022-10-10T10:19:35;7.10;;;4.10;;
16854;SDS011;8543;54.522;18.550;2022-10-10T10:22:01;8.10;;;4.10;;
16854;SDS011;8543;54.522;18.550;2022-10-10T10:24:31;6.60;;;4.00;;
16854;SDS011;8543;54.522;18.550;2022-10-10T10:27:15;6.40;;;3.50;;
16854;SDS011;8543;54.522;18.550;2022-10-10T10:29:45;6.30;;;3.70;;
16854;SDS011;8543;54.522;18.550;2022-10-10T10:32:14;5.90;;;3.50;;
16854;SDS011;8543;54.522;18.550;2022-10-10T10:35:14;7.10;;;4.30;;
16854;SDS011;8543;54.522;18.550;2022-10-10T11:09:31;6.40;;;3.50;;
16854;SDS011;8543;54.522;18.550;2022-10-10T11:15:16;6.00;;;4.00;;
16854;SDS011;8543;54.522;18.550;2022-10-10T11:27:06;7.20;;;4.00;;
16854;SDS011;8543;54.522;18.550;2022-10-10T11:30:15;7.10;;;4.00;;
16854;SDS011;8543;54.522;18.550;2022-10-10T11:33:09;7.00;;;3.90;;
16854;SDS011;8543;54.522;18.550;2022-10-10T11:41:58;8.20;;;4.30;;
16854;SDS011;8543;54.522;18.550;2022-10-10T11:44:46;7.00;;;4.10;;
16854;SDS011;8543;54.522;18.550;2022-10-10T11:50:35;7.10;;;4.10;;
16854;SDS011;8543;54.522;18.550;2022-10-10T11:53:05;6.10;;;3.50;;
16854;SDS011;8543;54.522;18.550;2022-10-10T11:58:39;5.70;;;3.60;;
16854;SDS011;8543;54.522;18.550;2022-10-10T12:01:21;9.30;;;3.80;;
16854;SDS011;8543;54.522;18.550;2022-10-10T12:03:50;7.70;;;3.80;;
16854;SDS011;8543;54.522;18.550;2022-10-10T12:06:19;5.70;;;3.90;;
16854;SDS011;8543;54.522;18.550;2022-10-10T12:08:50;7.00;;;4.10;;
16854;SDS011;8543;54.522;18.550;2022-10-10T12:11:33;7.00;;;4.40;;
16854;SDS011;8543;54.522;18.550;2022-10-10T12:14:05;7.70;;;4.10;;
16854;SDS011;8543;54.522;18.550;2022-10-10T12:16:32;7.30;;;4.50;;
16854;SDS011;8543;54.522;18.550;2022-10-10T12:19:05;7.20;;;4.20;;
16854;SDS011;8543;54.522;18.550;2022-10-10T12:21:48;7.40;;;4.00;;
16854;SDS011;8543;54.522;18.550;2022-10-10T12:25:04;5.70;;;3.70;;
16854;SDS011;8543;54.522;18.550;2022-10-10T12:35:50;6.50;;;3.80;;
16854;SDS011;8543;54.522;18.550;2022-10-10T12:38:18;8.20;;;4.30;;
16854;SDS011;8543;54.522;18.550;2022-10-10T12:46:36;7.50;;;4.30;;
16854;SDS011;8543;54.522;18.550;2022-10-10T12:51:59;7.20;;;4.90;;
16854;SDS011;8543;54.522;18.550;2022-10-10T12:54:39;7.40;;;4.80;;
16854;SDS011;8543;54.522;18.550;2022-10-10T12:59:56;7.70;;;4.50;;
16854;SDS011;8543;54.522;18.550;2022-10-10T13:02:28;7.90;;;5.10;;
16854;SDS011;8543;54.522;18.550;2022-10-10T13:04:56;7.80;;;4.80;;
16854;SDS011;8543;54.522;18.550;2022-10-10T13:07:23;6.30;;;5.20;;
16854;SDS011;8543;54.522;18.550;2022-10-10T13:09:50;10.50;;;5.40;;
16854;SDS011;8543;54.522;18.550;2022-10-10T13:12:27;8.60;;;4.70;;
16854;SDS011;8543;54.522;18.550;2022-10-10T13:14:54;8.70;;;4.80;;
16854;SDS011;8543;54.522;18.550;2022-10-10T13:17:21;7.20;;;4.50;;
16854;SDS011;8543;54.522;18.550;2022-10-10T13:19:49;9.50;;;4.70;;
16854;SDS011;8543;54.522;18.550;2022-10-10T13:22:15;6.70;;;4.70;;
16854;SDS011;8543;54.522;18.550;2022-10-10T13:24:43;8.00;;;4.80;;
16854;SDS011;8543;54.522;18.550;2022-10-10T13:29:50;8.00;;;4.80;;
16854;SDS011;8543;54.522;18.550;2022-10-10T13:32:20;8.80;;;5.10;;
16854;SDS011;8543;54.522;18.550;2022-10-10T13:34:52;7.10;;;4.50;;
16854;SDS011;8543;54.522;18.550;2022-10-10T13:37:21;7.60;;;4.60;;
16854;SDS011;8543;54.522;18.550;2022-10-10T13:39:47;6.40;;;4.00;;
16854;SDS011;8543;54.522;18.550;2022-10-10T13:42:57;5.80;;;4.00;;
16854;SDS011;8543;54.522;18.550;2022-10-10T13:50:26;8.00;;;4.10;;
16854;SDS011;8543;54.522;18.550;2022-10-10T13:58:25;5.60;;;3.90;;
16854;SDS011;8543;54.522;18.550;2022-10-10T14:03:44;7.00;;;4.60;;
16854;SDS011;8543;54.522;18.550;2022-10-10T14:06:15;10.70;;;4.90;;
16854;SDS011;8543;54.522;18.550;2022-10-10T14:08:42;8.50;;;4.30;;
16854;SDS011;8543;54.522;18.550;2022-10-10T14:11:07;5.40;;;4.20;;
16854;SDS011;8543;54.522;18.550;2022-10-10T14:13:43;5.90;;;4.70;;
16854;SDS011;8543;54.522;18.550;2022-10-10T14:18:41;6.70;;;4.30;;
16854;SDS011;8543;54.522;18.550;2022-10-10T14:21:07;6.50;;;4.20;;
16854;SDS011;8543;54.522;18.550;2022-10-10T14:23:33;7.00;;;4.70;;
16854;SDS011;8543;54.522;18.550;2022-10-10T14:26:00;6.30;;;4.50;;
16854;SDS011;8543;54.522;18.550;2022-10-10T14:28:27;7.60;;;4.80;;
16854;SDS011;8543;54.522;18.550;2022-10-10T14:30:55;6.30;;;4.50;;
16854;SDS011;8543;54.522;18.550;2022-10-10T14:33:21;9.30;;;4.70;;
16854;SDS011;8543;54.522;18.550;2022-10-10T14:35:47;9.00;;;5.00;;
16854;SDS011;8543;54.522;18.550;2022-10-10T14:38:14;8.00;;;5.10;;
16854;SDS011;8543;54.522;18.550;2022-10-10T14:40:40;5.80;;;4.20;;
16854;SDS011;8543;54.522;18.550;2022-10-10T14:43:06;8.30;;;4.50;;
16854;SDS011;8543;54.522;18.550;2022-10-10T14:45:32;7.50;;;4.80;;
16854;SDS011;8543;54.522;18.550;2022-10-10T14:47:57;7.90;;;4.70;;
16854;SDS011;8543;54.522;18.550;2022-10-10T14:50:24;8.80;;;5.00;;
16854;SDS011;8543;54.522;18.550;2022-10-10T14:52:51;7.50;;;4.90;;
16854;SDS011;8543;54.522;18.550;2022-10-10T14:55:17;7.50;;;5.20;;
16854;SDS011;8543;54.522;18.550;2022-10-10T14:57:43;9.40;;;5.30;;
16854;SDS011;8543;54.522;18.550;2022-10-10T15:00:15;8.80;;;5.50;;
16854;SDS011;8543;54.522;18.550;2022-10-10T15:02:45;6.80;;;5.20;;
16854;SDS011;8543;54.522;18.550;2022-10-10T15:05:11;7.80;;;5.50;;
16854;SDS011;8543;54.522;18.550;2022-10-10T15:07:37;7.90;;;5.30;;
16854;SDS011;8543;54.522;18.550;2022-10-10T15:10:04;10.10;;;5.40;;
16854;SDS011;8543;54.522;18.550;2022-10-10T15:12:31;7.00;;;5.50;;
16854;SDS011;8543;54.522;18.550;2022-10-10T15:14:57;12.60;;;5.60;;
16854;SDS011;8543;54.522;18.550;2022-10-10T15:17:23;8.10;;;5.60;;
16854;SDS011;8543;54.522;18.550;2022-10-10T15:19:49;9.40;;;6.20;;
16854;SDS011;8543;54.522;18.550;2022-10-10T15:22:16;8.90;;;5.70;;
16854;SDS011;8543;54.522;18.550;2022-10-10T15:24:41;8.50;;;5.60;;
16854;SDS011;8543;54.522;18.550;2022-10-10T15:27:07;10.50;;;6.40;;
16854;SDS011;8543;54.522;18.550;2022-10-10T15:29:32;8.30;;;6.00;;
16854;SDS011;8543;54.522;18.550;2022-10-10T15:31:59;11.70;;;6.50;;
16854;SDS011;8543;54.522;18.550;2022-10-10T15:34:25;11.10;;;6.50;;
16854;SDS011;8543;54.522;18.550;2022-10-10T15:36:51;8.60;;;5.70;;
16854;SDS011;8543;54.522;18.550;2022-10-10T15:39:16;9.20;;;6.50;;
16854;SDS011;8543;54.522;18.550;2022-10-10T15:41:42;7.80;;;5.50;;
16854;SDS011;8543;54.522;18.550;2022-10-10T15:44:14;8.20;;;6.10;;
16854;SDS011;8543;54.522;18.550;2022-10-10T15:46:42;10.00;;;6.10;;
16854;SDS011;8543;54.522;18.550;2022-10-10T15:49:09;8.10;;;6.10;;
16854;SDS011;8543;54.522;18.550;2022-10-10T15:51:34;9.60;;;6.30;;
16854;SDS011;8543;54.522;18.550;2022-10-10T15:53:59;10.70;;;6.50;;
16854;SDS011;8543;54.522;18.550;2022-10-10T15:56:25;8.30;;;6.00;;
16854;SDS011;8543;54.522;18.550;2022-10-10T15:58:55;10.10;;;6.50;;
16854;SDS011;8543;54.522;18.550;2022-10-10T16:01:22;8.30;;;5.50;;
16854;SDS011;8543;54.522;18.550;2022-10-10T16:03:47;9.40;;;6.70;;
16854;SDS011;8543;54.522;18.550;2022-10-10T16:06:14;9.20;;;6.50;;
16854;SDS011;8543;54.522;18.550;2022-10-10T16:08:41;11.00;;;6.20;;
16854;SDS011;8543;54.522;18.550;2022-10-10T16:11:08;10.60;;;6.20;;
16854;SDS011;8543;54.522;18.550;2022-10-10T16:13:38;9.00;;;5.60;;
16854;SDS011;8543;54.522;18.550;2022-10-10T16:16:05;10.30;;;6.30;;
16854;SDS011;8543;54.522;18.550;2022-10-10T16:18:33;10.40;;;6.40;;
16854;SDS011;8543;54.522;18.550;2022-10-10T16:21:02;9.40;;;6.20;;
16854;SDS011;8543;54.522;18.550;2022-10-10T16:23:28;10.60;;;6.50;;
16854;SDS011;8543;54.522;18.550;2022-10-10T16:26:04;10.50;;;6.10;;
16854;SDS011;8543;54.522;18.550;2022-10-10T16:28:47;13.20;;;7.10;;
16854;SDS011;8543;54.522;18.550;2022-10-10T16:31:14;12.00;;;6.80;;
16854;SDS011;8543;54.522;18.550;2022-10-10T16:33:42;8.80;;;5.90;;
16854;SDS011;8543;54.522;18.550;2022-10-10T16:36:08;13.00;;;6.90;;
16854;SDS011;8543;54.522;18.550;2022-10-10T16:38:41;10.90;;;6.60;;
16854;SDS011;8543;54.522;18.550;2022-10-10T16:41:08;11.90;;;6.60;;
16854;SDS011;8543;54.522;18.550;2022-10-10T16:43:36;10.00;;;7.10;;
16854;SDS011;8543;54.522;18.550;2022-10-10T16:46:03;9.10;;;6.60;;
16854;SDS011;8543;54.522;18.550;2022-10-10T16:48:30;8.60;;;5.80;;
16854;SDS011;8543;54.522;18.550;2022-10-10T16:51:01;9.80;;;6.50;;
16854;SDS011;8543;54.522;18.550;2022-10-10T17:03:25;9.60;;;5.90;;
16854;SDS011;8543;54.522;18.550;2022-10-10T17:06:44;9.40;;;6.70;;
16854;SDS011;8543;54.522;18.550;2022-10-10T17:29:23;10.90;;;6.00;;
16854;SDS011;8543;54.522;18.550;2022-10-10T17:31:51;11.40;;;6.40;;
16854;SDS011;8543;54.522;18.550;2022-10-10T17:37:22;13.00;;;7.10;;
16854;SDS011;8543;54.522;18.550;2022-10-10T17:43:03;13.70;;;7.10;;
16854;SDS011;8543;54.522;18.550;2022-10-10T17:45:43;8.40;;;6.10;;
16854;SDS011;8543;54.522;18.550;2022-10-10T17:48:17;11.40;;;6.50;;
16854;SDS011;8543;54.522;18.550;2022-10-10T17:50:50;10.00;;;5.40;;
16854;SDS011;8543;54.522;18.550;2022-10-10T17:54:00;10.30;;;6.60;;
16854;SDS011;8543;54.522;18.550;2022-10-10T17:56:27;10.90;;;6.10;;
16854;SDS011;8543;54.522;18.550;2022-10-10T18:05:33;11.60;;;6.10;;
16854;SDS011;8543;54.522;18.550;2022-10-10T18:08:03;9.70;;;6.40;;
16854;SDS011;8543;54.522;18.550;2022-10-10T18:10:32;10.10;;;5.90;;
16854;SDS011;8543;54.522;18.550;2022-10-10T18:13:09;10.20;;;5.70;;
16854;SDS011;8543;54.522;18.550;2022-10-10T18:15:40;8.80;;;6.10;;
16854;SDS011;8543;54.522;18.550;2022-10-10T18:21:27;11.70;;;5.90;;
16854;SDS011;8543;54.522;18.550;2022-10-10T18:24:19;9.30;;;5.50;;
16854;SDS011;8543;54.522;18.550;2022-10-10T18:26:44;11.70;;;6.20;;